createdAt,value
2022-09-02T00:01:15.329Z,101914.81
2022-09-02T00:03:42.560Z,101914.84
2022-09-02T00:06:10.009Z,101915.66
2022-09-02T00:08:36.547Z,101915.28
2022-09-02T00:11:06.157Z,101914.91
2022-09-02T00:13:35.459Z,101911.41
2022-09-02T00:16:03.611Z,101909.44
2022-09-02T00:18:30.559Z,101909.88
2022-09-02T00:20:57.194Z,101905.97
2022-09-02T00:23:23.923Z,101901.25
2022-09-02T00:25:53.987Z,101902.03
2022-09-02T00:28:20.993Z,101909.91
2022-09-02T00:30:48.456Z,101904.00
2022-09-02T00:33:15.481Z,101900.88
2022-09-02T00:35:42.817Z,101910.28
2022-09-02T00:38:09.806Z,101900.09
2022-09-02T00:40:37.721Z,101906.75
2022-09-02T00:43:08.433Z,101905.22
2022-09-02T00:45:36.576Z,101898.94
2022-09-02T00:48:04.165Z,101900.91
2022-09-02T00:50:34.312Z,101898.53
2022-09-02T00:53:07.064Z,101886.00
2022-09-02T00:55:38.407Z,101886.81
2022-09-02T00:58:16.709Z,101892.28
2022-09-02T01:00:45.943Z,101890.72
2022-09-02T01:03:16.341Z,101881.72
2022-09-02T01:05:45.940Z,101884.06
2022-09-02T01:08:15.927Z,101883.28
2022-09-02T01:10:43.215Z,101878.59
2022-09-02T01:13:15.593Z,101871.50
2022-09-02T01:15:46.556Z,101874.63
2022-09-02T01:18:18.982Z,101871.53
2022-09-02T01:20:46.514Z,101874.25
2022-09-02T01:23:16.279Z,101880.94
2022-09-02T01:25:43.426Z,101869.56
2022-09-02T01:28:13.959Z,101870.34
2022-09-02T01:30:45.372Z,101871.13
2022-09-02T01:33:12.188Z,101869.13
2022-09-02T01:35:39.237Z,101866.41
2022-09-02T01:38:06.412Z,101862.88
2022-09-02T01:40:34.346Z,101865.22
2022-09-02T01:43:07.510Z,101856.22
2022-09-02T01:45:35.918Z,101853.47
2022-09-02T01:48:03.398Z,101856.59
2022-09-02T01:50:31.590Z,101855.03
2022-09-02T01:53:01.730Z,101851.91
2022-09-02T01:55:29.430Z,101849.53
2022-09-02T01:57:56.019Z,101852.31
2022-09-02T02:00:23.272Z,101851.13
2022-09-02T02:02:50.103Z,101849.97
2022-09-02T02:05:17.211Z,101845.66
2022-09-02T02:07:45.103Z,101850.75
2022-09-02T02:10:14.681Z,101853.09
2022-09-02T02:12:41.998Z,101854.28
2022-09-02T02:15:13.146Z,101843.72
2022-09-02T02:17:39.812Z,101851.16
2022-09-02T02:20:11.808Z,101845.28
2022-09-02T02:22:39.149Z,101851.56
2022-09-02T02:25:06.780Z,101842.13
2022-09-02T02:27:33.594Z,101851.13
2022-09-02T02:30:00.972Z,101852.31
2022-09-02T02:32:27.667Z,101844.50
2022-09-02T02:34:54.564Z,101837.81
2022-09-02T02:37:25.419Z,101841.34
2022-09-02T02:39:52.831Z,101845.66
2022-09-02T02:42:20.210Z,101838.22
2022-09-02T02:44:46.874Z,101833.09
2022-09-02T02:47:13.611Z,101838.22
2022-09-02T02:49:42.674Z,101837.81
2022-09-02T02:52:10.743Z,101835.88
2022-09-02T02:54:38.187Z,101836.63
2022-09-02T02:57:06.013Z,101831.53
2022-09-02T02:59:33.016Z,101837.03
2022-09-02T03:01:59.822Z,101826.84
2022-09-02T03:04:26.644Z,101826.81
2022-09-02T03:06:53.213Z,101831.50
2022-09-02T03:09:20.460Z,101822.09
2022-09-02T03:11:48.550Z,101823.69
2022-09-02T03:14:15.590Z,101818.94
2022-09-02T03:16:42.475Z,101820.53
2022-09-02T03:19:14.182Z,101818.16
2022-09-02T03:21:42.234Z,101817.38
2022-09-02T03:24:10.624Z,101820.50
2022-09-02T03:26:37.943Z,101821.69
2022-09-02T03:29:05.135Z,101822.47
2022-09-02T03:31:32.202Z,101816.19
2022-09-02T03:33:58.896Z,101820.50
2022-09-02T03:36:29.616Z,101813.84
2022-09-02T03:38:57.811Z,101810.31
2022-09-02T03:41:24.614Z,101812.66
2022-09-02T03:43:51.465Z,101815.00
2022-09-02T03:46:18.779Z,101810.72
2022-09-02T03:48:45.536Z,101819.31
2022-09-02T03:51:12.502Z,101802.47
2022-09-02T03:53:39.537Z,101807.56
2022-09-02T03:56:08.825Z,101797.78
2022-09-02T03:58:36.470Z,101804.84
2022-09-02T04:01:04.407Z,101794.25
2022-09-02T04:03:33.675Z,101790.31
2022-09-02T04:06:00.337Z,101794.28
2022-09-02T04:08:27.349Z,101790.31
2022-09-02T04:10:53.959Z,101786.81
2022-09-02T04:13:20.527Z,101792.28
2022-09-02T04:15:49.640Z,101785.63
2022-09-02T04:18:17.933Z,101789.13
2022-09-02T04:20:45.263Z,101788.75
2022-09-02T04:23:11.975Z,101786.00
2022-09-02T04:25:41.727Z,101793.44
2022-09-02T04:28:08.495Z,101789.50
2022-09-02T04:30:37.988Z,101785.56
2022-09-02T04:33:04.682Z,101791.06
2022-09-02T04:35:31.388Z,101789.88
2022-09-02T04:37:58.146Z,101791.06
2022-09-02T04:40:24.887Z,101788.31
2022-09-02T04:42:55.426Z,101792.63
2022-09-02T04:45:24.626Z,101786.34
2022-09-02T04:47:54.468Z,101780.47
2022-09-02T04:50:21.130Z,101785.56
2022-09-02T04:52:47.708Z,101784.41
2022-09-02T04:55:14.789Z,101787.13
2022-09-02T04:57:41.433Z,101787.50
2022-09-02T05:00:09.849Z,101790.66
2022-09-02T05:02:36.479Z,101789.47
2022-09-02T05:05:03.105Z,101790.28
2022-09-02T05:07:30.911Z,101786.34
2022-09-02T05:10:00.124Z,101787.94
2022-09-02T05:12:28.137Z,101778.91
2022-09-02T05:14:57.275Z,101780.88
2022-09-02T05:17:23.845Z,101783.22
2022-09-02T05:19:50.354Z,101775.78
2022-09-02T05:22:17.021Z,101784.41
2022-09-02T05:24:43.850Z,101779.34
2022-09-02T05:27:10.406Z,101789.09
2022-09-02T05:29:37.070Z,101775.41
2022-09-02T05:32:04.773Z,101777.00
2022-09-02T05:34:33.344Z,101781.69
2022-09-02T05:36:59.997Z,101772.34
2022-09-02T05:39:26.668Z,101773.50
2022-09-02T05:41:53.376Z,101773.13
2022-09-02T05:44:20.179Z,101770.78
2022-09-02T05:47:07.209Z,101771.97
2022-09-02T05:49:33.733Z,101772.38
2022-09-02T05:52:01.104Z,101772.38
2022-09-02T05:54:33.710Z,101779.78
2022-09-02T05:57:09.225Z,101771.59
2022-09-02T05:59:39.998Z,101775.53
2022-09-02T06:02:07.907Z,101781.03
2022-09-02T06:04:45.480Z,101774.34
2022-09-02T06:07:13.830Z,101773.56
2022-09-02T06:09:41.506Z,101779.44
2022-09-02T06:12:08.660Z,101776.69
2022-09-02T06:14:35.394Z,101768.06
2022-09-02T06:17:02.077Z,101765.31
2022-09-02T06:19:32.585Z,101770.03
2022-09-02T06:22:01.158Z,101773.56
2022-09-02T06:24:29.731Z,101777.47
2022-09-02T06:26:58.497Z,101772.34
2022-09-02T06:29:26.524Z,101773.13
2022-09-02T06:31:53.855Z,101767.59
2022-09-02T06:34:27.006Z,101766.81
2022-09-02T06:36:53.909Z,101771.06
2022-09-02T06:39:23.284Z,101777.31
2022-09-02T06:41:50.404Z,101774.91
2022-09-02T06:44:18.998Z,101767.81
2022-09-02T06:46:49.419Z,101775.56
2022-09-02T06:49:22.037Z,101775.09
2022-09-02T06:51:50.748Z,101768.31
2022-09-02T06:54:20.794Z,101763.06
2022-09-02T06:56:49.803Z,101762.16
2022-09-02T06:59:17.545Z,101769.16
2022-09-02T07:01:44.814Z,101761.56
2022-09-02T07:04:29.886Z,101764.22
2022-09-02T07:06:56.855Z,101764.16
2022-09-02T07:09:32.753Z,101758.59
2022-09-02T07:12:04.657Z,101768.31
2022-09-02T07:14:36.479Z,101768.25
2022-09-02T07:17:03.331Z,101770.09
2022-09-02T07:19:29.873Z,101765.25
2022-09-02T07:21:56.604Z,101766.72
2022-09-02T07:24:23.422Z,101763.88
2022-09-02T07:26:50.595Z,101757.53
2022-09-02T07:29:22.633Z,101754.78
2022-09-02T07:31:50.040Z,101763.41
2022-09-02T07:34:17.912Z,101751.88
2022-09-02T07:36:48.673Z,101756.16
2022-09-02T07:39:23.953Z,101753.28
2022-09-02T07:41:53.283Z,101758.03
2022-09-02T07:44:22.438Z,101754.84
2022-09-02T07:46:51.632Z,101751.25
2022-09-02T07:49:23.923Z,101754.91
2022-09-02T07:51:52.069Z,101749.00
2022-09-02T07:54:24.153Z,101752.53
2022-09-02T07:56:51.526Z,101749.75
2022-09-02T07:59:20.694Z,101739.91
2022-09-02T08:01:48.914Z,101741.97
2022-09-02T08:04:21.198Z,101739.13
2022-09-02T08:06:47.805Z,101737.63
2022-09-02T08:09:14.649Z,101734.88
2022-09-02T08:12:05.469Z,101738.00
2022-09-02T08:14:32.072Z,101741.06
2022-09-02T08:17:30.727Z,101740.59
2022-09-02T08:21:19.230Z,101744.88
2022-09-02T08:23:49.301Z,101734.56
2022-09-02T08:26:17.362Z,101731.31
2022-09-02T08:28:46.386Z,101732.06
2022-09-02T08:31:12.981Z,101732.78
2022-09-02T08:33:43.060Z,101728.00
2022-09-02T08:36:11.940Z,101719.25
2022-09-02T08:38:38.576Z,101716.06
2022-09-02T08:41:17.603Z,101711.25
2022-09-02T08:43:45.502Z,101713.56
2022-09-02T08:46:17.918Z,101711.53
2022-09-02T08:48:54.090Z,101711.44
2022-09-02T08:51:33.791Z,101717.28
2022-09-02T08:54:32.548Z,101712.78
2022-09-02T08:56:59.854Z,101708.34
2022-09-02T08:59:29.323Z,101707.06
2022-09-02T09:02:03.929Z,101699.50
2022-09-02T09:04:31.457Z,101704.53
2022-09-02T09:07:16.736Z,101708.38
2022-09-02T09:10:10.064Z,101706.25
2022-09-02T09:12:40.595Z,101700.72
2022-09-02T09:15:29.174Z,101706.19
2022-09-02T09:17:58.649Z,101705.31
2022-09-02T09:20:27.969Z,101696.53
2022-09-02T09:22:57.768Z,101690.53
2022-09-02T09:28:12.520Z,101702.91
2022-09-02T09:30:42.663Z,101699.63
2022-09-02T09:33:17.539Z,101697.59
2022-09-02T09:35:51.537Z,101702.59
2022-09-02T09:38:30.368Z,101690.63
2022-09-02T09:41:17.705Z,101696.09
2022-09-02T09:43:46.612Z,101681.78
2022-09-02T09:46:30.435Z,101685.19
2022-09-02T09:48:57.013Z,101681.81
2022-09-02T09:51:24.210Z,101689.94
2022-09-02T09:54:15.639Z,101688.22
2022-09-02T09:56:44.663Z,101679.75
2022-09-02T09:59:43.540Z,101682.00
2022-09-02T10:02:20.665Z,101681.22
2022-09-02T10:04:47.408Z,101674.59
2022-09-02T10:07:36.485Z,101681.22
2022-09-02T10:10:16.804Z,101676.47
2022-09-02T10:16:05.711Z,101674.31
2022-09-02T10:18:57.715Z,101670.97
2022-09-02T10:21:36.583Z,101663.59
2022-09-02T10:24:21.075Z,101665.31
2022-09-02T10:26:51.168Z,101662.38
2022-09-02T10:29:34.603Z,101662.63
2022-09-02T10:32:22.335Z,101669.88
2022-09-02T10:35:17.276Z,101658.06
2022-09-02T10:38:22.435Z,101654.78
2022-09-02T10:41:08.080Z,101650.50
2022-09-02T10:43:49.314Z,101652.97
2022-09-02T10:47:08.385Z,101653.84
2022-09-02T10:50:10.980Z,101642.84
2022-09-02T10:52:53.221Z,101645.94
2022-09-02T10:55:45.218Z,101646.84
2022-09-02T10:58:38.902Z,101640.06
2022-09-02T11:01:12.170Z,101634.53
2022-09-02T11:04:04.436Z,101630.94
2022-09-02T11:07:29.401Z,101636.41
2022-09-02T11:10:25.530Z,101637.00
2022-09-02T11:13:18.164Z,101638.19
2022-09-02T11:16:04.009Z,101629.81
2022-09-02T11:19:15.241Z,101628.13
2022-09-02T11:22:14.125Z,101626.72
2022-09-02T11:25:00.515Z,101621.94
2022-09-02T11:27:48.927Z,101621.03
2022-09-02T11:30:18.934Z,101611.69
2022-09-02T11:32:59.669Z,101611.31
2022-09-02T11:35:28.884Z,101604.84
2022-09-02T11:38:00.664Z,101608.94
2022-09-02T11:40:44.304Z,101611.78
2022-09-02T11:43:22.203Z,101601.97
2022-09-02T11:45:55.344Z,101587.31
2022-09-02T11:48:47.191Z,101597.25
2022-09-02T11:51:35.913Z,101587.41
2022-09-02T11:54:04.781Z,101593.28
2022-09-02T11:56:39.781Z,101583.44
2022-09-02T11:59:10.964Z,101595.94
2022-09-02T12:01:48.172Z,101590.72
2022-09-02T12:07:11.138Z,101586.91
2022-09-02T12:09:50.362Z,101577.50
2022-09-02T12:12:36.314Z,101577.03
2022-09-02T12:15:17.175Z,101576.75
2022-09-02T12:17:46.258Z,101581.88
2022-09-02T12:20:41.364Z,101572.50
2022-09-02T12:23:12.500Z,101572.13
2022-09-02T12:25:49.762Z,101566.50
2022-09-02T12:28:25.993Z,101560.16
2022-09-02T12:30:56.221Z,101568.97
2022-09-02T12:33:35.481Z,101557.53
2022-09-02T12:36:05.006Z,101559.69
2022-09-02T12:38:36.444Z,101555.00
2022-09-02T12:41:04.269Z,101553.81
2022-09-02T12:43:51.310Z,101552.56
2022-09-02T12:46:56.770Z,101552.31
2022-09-02T12:49:42.467Z,101549.81
2022-09-02T12:52:11.589Z,101558.34
2022-09-02T12:54:39.028Z,101558.78
2022-09-02T12:57:07.960Z,101552.88
2022-09-02T12:59:40.708Z,101552.06
2022-09-02T13:05:40.349Z,101544.19
2022-09-02T13:08:13.600Z,101535.53
2022-09-02T13:11:11.969Z,101544.19
2022-09-02T13:14:05.006Z,101538.47
2022-09-02T13:16:39.378Z,101545.06
2022-09-02T13:19:20.276Z,101537.28
2022-09-02T13:21:50.347Z,101531.75
2022-09-02T13:24:29.632Z,101533.03
2022-09-02T13:27:20.372Z,101536.78
2022-09-02T13:30:02.209Z,101536.94
2022-09-02T13:32:31.006Z,101532.50
2022-09-02T13:35:02.986Z,101537.91
2022-09-02T13:37:36.764Z,101529.56
2022-09-02T13:40:07.088Z,101525.56
2022-09-02T13:42:35.802Z,101523.13
2022-09-02T13:45:21.535Z,101521.88
2022-09-02T13:47:54.854Z,101516.63
2022-09-02T13:50:50.863Z,101517.56
2022-09-02T13:53:53.980Z,101506.56
2022-09-02T13:56:31.102Z,101505.00
2022-09-02T13:58:58.980Z,101502.41
2022-09-02T14:01:32.936Z,101493.63
2022-09-02T14:06:36.679Z,101492.72
2022-09-02T14:09:08.800Z,101488.22
2022-09-02T14:11:43.007Z,101480.53
2022-09-02T14:17:21.485Z,101475.44
2022-09-02T14:19:48.809Z,101479.03
2022-09-02T14:22:26.474Z,101472.09
2022-09-02T14:24:53.123Z,101472.09
2022-09-02T14:27:23.084Z,101472.84
2022-09-02T14:29:57.636Z,101478.28
2022-09-02T14:32:26.914Z,101473.63
2022-09-02T14:35:16.448Z,101471.00
2022-09-02T14:37:49.303Z,101460.34
2022-09-02T14:40:16.366Z,101463.13
2022-09-02T14:42:47.638Z,101458.63
2022-09-02T14:45:14.895Z,101456.16
2022-09-02T14:47:42.481Z,101445.38
2022-09-02T14:50:15.357Z,101447.50
2022-09-02T14:52:48.700Z,101448.28
2022-09-02T14:55:43.898Z,101446.00
2022-09-02T14:58:10.538Z,101446.91
2022-09-02T15:00:39.201Z,101448.03
2022-09-02T15:03:07.068Z,101446.00
2022-09-02T15:05:33.599Z,101441.22
2022-09-02T15:08:00.325Z,101444.75
2022-09-02T15:10:27.884Z,101442.47
2022-09-02T15:12:56.012Z,101444.63
2022-09-02T15:15:22.892Z,101437.50
2022-09-02T15:17:49.395Z,101433.94
2022-09-02T15:20:15.977Z,101431.94
2022-09-02T15:22:43.311Z,101421.88
2022-09-02T15:25:12.097Z,101424.66
2022-09-02T15:27:38.864Z,101423.13
2022-09-02T15:30:09.188Z,101413.56
2022-09-02T15:32:36.677Z,101415.41
2022-09-02T15:35:03.801Z,101416.53
2022-09-02T15:37:30.367Z,101418.84
2022-09-02T15:39:57.066Z,101416.53
2022-09-02T15:42:23.747Z,101415.28
2022-09-02T15:44:50.273Z,101408.19
2022-09-02T15:47:16.781Z,101401.69
2022-09-02T15:49:43.254Z,101405.59
2022-09-02T15:52:10.060Z,101399.53
2022-09-02T15:54:36.656Z,101401.88
2022-09-02T15:57:03.655Z,101399.09
2022-09-02T15:59:30.168Z,101406.66
2022-09-02T16:01:58.715Z,101399.53
2022-09-02T16:04:27.160Z,101398.91
2022-09-02T16:06:54.932Z,101395.06
2022-09-02T16:09:22.063Z,101396.72
2022-09-02T16:11:51.806Z,101388.06
2022-09-02T16:14:20.419Z,101385.75
2022-09-02T16:16:49.363Z,101384.22
2022-09-02T16:19:18.662Z,101384.84
2022-09-02T16:21:45.339Z,101374.81
2022-09-02T16:24:11.878Z,101371.09
2022-09-02T16:26:40.277Z,101376.63
2022-09-02T16:29:09.222Z,101371.09
2022-09-02T16:31:38.829Z,101373.09
2022-09-02T16:34:08.528Z,101364.59
2022-09-02T16:36:38.753Z,101367.22
2022-09-02T16:39:06.416Z,101365.81
2022-09-02T16:41:36.982Z,101364.44
2022-09-02T16:44:06.639Z,101361.34
2022-09-02T16:46:34.631Z,101366.91
2022-09-02T16:49:01.241Z,101353.44
2022-09-02T16:51:28.132Z,101357.94
2022-09-02T16:53:58.088Z,101355.28
2022-09-02T16:56:27.344Z,101354.97
2022-09-02T16:58:54.836Z,101355.44
2022-09-02T17:01:23.294Z,101354.97
2022-09-02T17:03:50.630Z,101347.25
2022-09-02T17:06:17.520Z,101345.84
2022-09-02T17:08:45.249Z,101352.34
2022-09-02T17:11:30.018Z,101352.44
2022-09-02T17:14:00.673Z,101347.81
2022-09-02T17:16:34.189Z,101347.94
2022-09-02T17:19:02.425Z,101345.31
2022-09-02T17:21:34.004Z,101343.78
2022-09-02T17:24:01.601Z,101343.16
2022-09-02T17:26:30.946Z,101347.28
2022-09-02T17:28:57.995Z,101344.97
2022-09-02T17:31:29.067Z,101351.31
2022-09-02T17:33:58.327Z,101343.13
2022-09-02T17:36:26.624Z,101338.50
2022-09-02T17:38:58.011Z,101346.19
2022-09-02T17:41:44.619Z,101336.91
2022-09-02T17:44:12.473Z,101341.81
2022-09-02T17:46:39.210Z,101342.72
2022-09-02T17:49:16.864Z,101344.88
2022-09-02T17:51:44.694Z,101334.69
2022-09-02T17:54:12.171Z,101344.34
2022-09-02T17:56:56.214Z,101346.97
2022-09-02T17:59:34.962Z,101351.09
2022-09-02T18:02:10.352Z,101341.81
2022-09-02T18:04:52.348Z,101354.56
2022-09-02T18:07:28.717Z,101345.28
2022-09-02T18:09:55.702Z,101355.72
2022-09-02T18:12:22.397Z,101338.91
2022-09-02T18:14:56.346Z,101349.03
2022-09-02T18:17:34.554Z,101341.63
2022-09-02T18:20:16.947Z,101349.72
2022-09-02T18:22:57.491Z,101354.31
2022-09-02T18:25:49.519Z,101347.81
2022-09-02T18:28:27.143Z,101342.53
2022-09-02T18:31:03.292Z,101336.44
2022-09-02T18:33:43.704Z,101339.81
2022-09-02T18:36:23.018Z,101341.91
2022-09-02T18:39:18.023Z,101343.25
2022-09-02T18:41:55.055Z,101342.63
2022-09-02T18:44:36.144Z,101355.34
2022-09-02T18:47:10.372Z,101352.34
2022-09-02T18:49:39.602Z,101353.59
2022-09-02T18:52:10.345Z,101362.78
2022-09-02T18:54:46.884Z,101346.41
2022-09-02T18:57:14.597Z,101358.03
2022-09-02T18:59:47.825Z,101349.50
2022-09-02T19:02:22.774Z,101347.31
2022-09-02T19:04:49.869Z,101350.97
2022-09-02T19:07:37.796Z,101353.41
2022-09-02T19:10:05.943Z,101357.09
2022-09-02T19:12:36.141Z,101359.63
2022-09-02T19:15:07.707Z,101364.50
2022-09-02T19:17:34.321Z,101369.84
2022-09-02T19:20:00.803Z,101369.16
2022-09-02T19:22:28.789Z,101372.03
2022-09-02T19:25:01.398Z,101374.94
2022-09-02T19:27:33.173Z,101365.63
2022-09-02T19:30:07.245Z,101371.72
2022-09-02T19:32:37.334Z,101371.00
2022-09-02T19:35:09.722Z,101366.81
2022-09-02T19:37:44.662Z,101361.03
2022-09-02T19:40:12.246Z,101368.22
2022-09-02T19:42:38.788Z,101370.56
2022-09-02T19:45:05.713Z,101368.66
2022-09-02T19:50:20.681Z,101374.75
2022-09-02T19:52:49.365Z,101368.53
2022-09-02T19:55:17.697Z,101365.09
2022-09-02T19:57:45.587Z,101365.22
2022-09-02T20:00:13.777Z,101368.50
2022-09-02T20:02:40.376Z,101366.28
2022-09-02T20:05:08.592Z,101380.22
2022-09-02T20:07:35.374Z,101378.31
2022-09-02T20:10:02.328Z,101366.59
2022-09-02T20:12:32.804Z,101381.63
2022-09-02T20:15:00.614Z,101369.13
2022-09-02T20:17:28.943Z,101367.22
2022-09-02T20:19:55.997Z,101373.28
2022-09-02T20:22:23.223Z,101368.66
2022-09-02T20:24:49.773Z,101371.41
2022-09-02T20:27:44.143Z,101378.59
2022-09-02T20:30:19.861Z,101371.28
2022-09-02T20:32:52.442Z,101371.75
2022-09-02T20:35:27.508Z,101374.97
2022-09-02T20:38:21.131Z,101378.59
2022-09-02T20:40:57.881Z,101374.38
2022-09-02T20:43:33.560Z,101382.75
2022-09-02T20:46:14.167Z,101372.13
2022-09-02T20:48:47.690Z,101362.75
2022-09-02T20:51:27.191Z,101370.34
2022-09-02T20:54:07.487Z,101365.69
2022-09-02T20:56:33.934Z,101371.63
2022-09-02T20:59:05.511Z,101365.78
2022-09-02T21:01:37.105Z,101368.25
2022-09-02T21:04:14.941Z,101361.28
2022-09-02T21:06:48.558Z,101360.59
2022-09-02T21:09:33.015Z,101361.47
2022-09-02T21:12:05.783Z,101359.59
2022-09-02T21:14:43.935Z,101358.00
2022-09-02T21:17:21.465Z,101360.44
2022-09-02T21:19:58.869Z,101354.91
2022-09-02T21:22:31.973Z,101353.91
2022-09-02T21:25:10.069Z,101363.03
2022-09-02T21:27:46.860Z,101356.81
2022-09-02T21:30:18.590Z,101362.78
2022-09-02T21:32:49.906Z,101359.66
2022-09-02T21:35:20.199Z,101357.00
2022-09-02T21:37:50.682Z,101358.28
2022-09-02T21:40:20.130Z,101349.31
2022-09-02T21:42:48.299Z,101354.47
2022-09-02T21:45:25.085Z,101348.59
2022-09-02T21:47:56.973Z,101350.66
2022-09-02T21:50:38.028Z,101349.97
2022-09-02T21:53:17.607Z,101352.38
2022-09-02T21:56:14.965Z,101354.03
2022-09-02T21:59:04.961Z,101351.34
2022-09-02T22:01:44.479Z,101344.69
2022-09-02T22:04:28.252Z,101356.16
2022-09-02T22:07:07.012Z,101342.47
2022-09-02T22:09:34.164Z,101347.63
2022-09-02T22:12:11.090Z,101342.53
2022-09-02T22:14:46.153Z,101341.41
2022-09-02T22:17:26.920Z,101342.59
2022-09-02T22:19:59.184Z,101344.69
2022-09-02T22:22:32.420Z,101340.00
2022-09-02T22:25:01.026Z,101335.34
2022-09-02T22:27:39.637Z,101331.47
2022-09-02T22:30:14.725Z,101339.38
2022-09-02T22:32:46.573Z,101335.50
2022-09-02T22:35:26.510Z,101331.59
2022-09-02T22:38:10.417Z,101330.13
2022-09-02T22:40:48.407Z,101329.81
2022-09-02T22:43:21.251Z,101325.13
2022-09-02T22:46:16.934Z,101335.03
2022-09-02T22:49:09.953Z,101326.81
2022-09-02T22:52:02.596Z,101330.78
2022-09-02T22:54:31.884Z,101323.66
2022-09-02T22:57:04.955Z,101328.91
2022-09-02T23:00:01.679Z,101321.81
2022-09-02T23:02:37.336Z,101317.44
2022-09-02T23:05:45.150Z,101323.38
2022-09-02T23:08:13.548Z,101324.56
2022-09-02T23:10:56.125Z,101324.63
2022-09-02T23:13:28.332Z,101327.91
2022-09-02T23:16:00.209Z,101318.16
2022-09-02T23:18:45.642Z,101318.91
2022-09-02T23:21:32.689Z,101320.13
2022-09-02T23:24:19.792Z,101315.03
2022-09-02T23:27:03.451Z,101310.78
2022-09-02T23:29:31.222Z,101313.94
2022-09-02T23:32:23.396Z,101317.91
2022-09-02T23:35:05.940Z,101313.28
2022-09-02T23:38:23.077Z,101311.78
2022-09-02T23:40:57.912Z,101310.28
2022-09-02T23:43:24.393Z,101314.59
2022-09-02T23:45:55.904Z,101315.78
2022-09-02T23:48:27.973Z,101310.00
2022-09-02T23:51:13.680Z,101305.34
2022-09-02T23:54:00.893Z,101304.66
2022-09-02T23:56:34.342Z,101304.34
2022-09-02T23:59:18.053Z,101300.81
